Time;durP1;ratioP1;P1;durP2;ratioP2;P2;SDS_P1;SDS_P2;PMS_P1;PMS_P2;Temp;Humidity;BMP_temperature;BMP_pressure;BME280_temperature;BME280_humidity;BME280_pressure;Samples;Min_cycle;Max_cycle;Signal;HPM_P1;HPM_P2
2023/04/04 00:01:51;;;;;;;4.00;2.45;;;;;;;1.62;nan;102940.16;4995161;28;20073;-40
2023/04/04 00:04:16;;;;;;;5.05;3.00;;;;;;;2.02;nan;103008.31;4995142;28;20496;-40
2023/04/04 00:06:44;;;;;;;3.47;2.53;;;;;;;1.96;nan;103002.00;5009797;28;20486;-41
2023/04/04 00:09:11;;;;;;;5.25;2.92;;;;;;;1.94;nan;102996.75;4994720;28;20077;-41
2023/04/04 00:11:36;;;;;;;5.85;2.58;;;;;;;1.57;nan;102934.81;4994859;28;20030;-40
2023/04/04 00:14:02;;;;;;;6.53;3.00;;;;;;;1.98;nan;103009.06;5004778;28;20049;-41
2023/04/04 00:16:27;;;;;;;5.00;2.67;;;;;;;1.93;nan;103007.09;5014312;28;20252;-40
2023/04/04 00:18:52;;;;;;;5.85;2.92;;;;;;;1.58;nan;102936.56;5013947;28;20053;-41
2023/04/04 00:21:18;;;;;;;4.63;2.70;;;;;;;1.92;nan;102997.53;5013981;28;20033;-40
2023/04/04 00:23:43;;;;;;;4.63;2.83;;;;;;;1.77;nan;102973.59;5012478;28;20038;-40
2023/04/04 00:26:09;;;;;;;3.83;2.40;;;;;;;1.66;nan;102965.41;5013234;28;20052;-40
2023/04/04 00:28:34;;;;;;;5.13;2.75;;;;;;;1.33;nan;102913.13;5012056;28;20033;-40
2023/04/04 00:31:00;;;;;;;5.78;3.05;;;;;;;1.27;nan;102912.88;4994459;28;20038;-41
2023/04/04 00:33:26;;;;;;;5.70;3.05;;;;;;;1.67;nan;102988.81;5009140;28;20470;-41
2023/04/04 00:35:51;;;;;;;4.72;2.78;;;;;;;1.53;nan;102968.34;4994278;28;20042;-41
2023/04/04 00:38:17;;;;;;;6.72;3.25;;;;;;;1.24;nan;102907.56;4994358;28;20038;-41
2023/04/04 00:40:42;;;;;;;4.20;2.97;;;;;;;1.24;nan;102923.13;4994290;28;20034;-41
2023/04/04 00:43:08;;;;;;;3.95;2.95;;;;;;;1.68;nan;102995.81;5008960;28;20034;-42
2023/04/04 00:45:33;;;;;;;4.03;2.42;;;;;;;1.32;nan;102920.81;4993883;28;20034;-41
2023/04/04 00:48:01;;;;;;;7.13;3.38;;;;;;;1.26;nan;102911.09;5008659;28;20034;-42
2023/04/04 00:50:26;;;;;;;6.53;2.88;;;;;;;1.68;nan;102985.41;4975927;28;20549;-41
2023/04/04 00:52:51;;;;;;;5.80;3.05;;;;;;;1.36;nan;102944.38;4993747;28;20038;-42
2023/04/04 00:55:17;;;;;;;4.78;3.30;;;;;;;1.63;nan;103001.66;4993635;28;20145;-42
2023/04/04 00:57:42;;;;;;;7.43;3.47;;;;;;;1.46;nan;102974.16;5009298;28;20449;-42
2023/04/04 01:00:09;;;;;;;6.93;3.13;;;;;;;1.08;nan;102933.75;4993984;28;20039;-41
2023/04/04 01:02:34;;;;;;;6.28;3.45;;;;;;;1.11;nan;102924.38;4993834;28;20113;-41
2023/04/04 01:05:00;;;;;;;5.13;3.20;;;;;;;1.45;nan;102982.75;5000027;28;20117;-41
2023/04/04 01:07:25;;;;;;;4.72;3.20;;;;;;;1.41;nan;102992.13;4992245;28;20035;-41
2023/04/04 01:09:50;;;;;;;7.43;3.55;;;;;;;1.24;nan;102971.53;4993757;28;20068;-41
2023/04/04 01:12:17;;;;;;;4.18;3.15;;;;;;;0.87;nan;102918.22;4992792;28;20038;-40
2023/04/04 01:14:42;;;;;;;4.80;3.25;;;;;;;0.86;nan;102912.97;4992271;28;20026;-40
2023/04/04 01:17:08;;;;;;;4.75;3.38;;;;;;;0.74;nan;102909.88;4993296;28;20034;-41
2023/04/04 01:19:43;;;;;;;4.60;3.15;;;;;;;0.62;nan;102893.81;4997540;28;20432;-41
2023/04/04 01:22:10;;;;;;;3.95;3.35;;;;;;;0.99;nan;102967.09;5011942;28;20050;-41
2023/04/04 01:24:37;;;;;;;4.43;3.38;;;;;;;0.57;nan;102896.25;5012029;28;20390;-41
2023/04/04 01:27:02;;;;;;;5.60;3.28;;;;;;;0.95;nan;102962.59;5011683;28;20477;-41
2023/04/04 01:29:27;;;;;;;4.63;3.10;;;;;;;0.48;nan;102890.69;5012974;28;20091;-41
2023/04/04 01:32:00;;;;;;;6.25;3.03;;;;;;;0.86;nan;102983.84;5013052;28;20128;-41
2023/04/04 01:34:31;;;;;;;6.50;3.45;;;;;;;0.82;nan;102974.16;5011413;28;20436;-40
2023/04/04 01:37:02;;;;;;;5.40;2.97;;;;;;;0.40;nan;102899.84;5010860;28;20049;-40
2023/04/04 01:39:32;;;;;;;;;;;;;;;0.77;nan;102969.63;5013116;28;20105;-40
2023/04/04 01:41:57;;;;;;;5.53;3.08;;;;;;;0.70;nan;102957.25;5028256;28;19920;-40
2023/04/04 01:44:24;;;;;;;7.38;3.40;;;;;;;0.47;nan;102926.06;5011349;28;20038;-40
2023/04/04 01:46:56;;;;;;;4.45;3.40;;;;;;;0.28;nan;102909.69;5007295;28;20030;-41
2023/04/04 01:49:22;;;;;;;5.20;3.30;;;;;;;0.61;nan;102968.13;4992929;28;20133;-41
2023/04/04 01:51:48;;;;;;;3.95;3.35;;;;;;;0.60;nan;102976.72;5008127;28;20031;-41
2023/04/04 01:54:14;;;;;;;5.10;3.42;;;;;;;0.49;nan;102952.94;4991519;28;20489;-40
2023/04/04 01:56:39;;;;;;;7.25;3.60;;;;;;;0.53;nan;102967.78;4992954;28;20038;-41
2023/04/04 01:59:04;;;;;;;7.10;3.78;;;;;;;0.16;nan;102904.88;4992808;28;20026;-41
2023/04/04 02:01:32;;;;;;;5.85;3.50;;;;;;;0.52;nan;102967.72;4992783;28;20042;-41
2023/04/04 02:03:57;;;;;;;7.40;3.60;;;;;;;0.11;nan;102901.22;5004740;28;20053;-41
2023/04/04 02:06:23;;;;;;;5.75;3.33;;;;;;;0.08;nan;102901.09;5011467;28;20076;-41
2023/04/04 02:08:48;;;;;;;5.63;3.67;;;;;;;0.48;nan;102974.47;5012163;28;20092;-41
2023/04/04 02:11:13;;;;;;;5.07;3.58;;;;;;;0.01;nan;102891.28;5011062;28;20037;-41
2023/04/04 02:13:43;;;;;;;7.38;3.63;;;;;;;0.41;nan;102974.13;5012428;28;20048;-41
2023/04/04 02:16:08;;;;;;;7.25;4.13;;;;;;;0.39;nan;102976.69;5012115;28;20121;-41
2023/04/04 02:18:35;;;;;;;5.65;3.22;;;;;;;0.30;nan;102960.75;5012231;28;20125;-41
2023/04/04 02:21:00;;;;;;;6.38;3.40;;;;;;;0.06;nan;102907.88;4993903;28;20526;-41
2023/04/04 02:23:25;;;;;;;5.93;3.90;;;;;;;0.50;nan;102984.91;4992471;28;20105;-41
2023/04/04 02:25:50;;;;;;;5.35;3.22;;;;;;;0.50;nan;102998.75;4992344;28;20058;-40
2023/04/04 02:28:16;;;;;;;4.93;3.75;;;;;;;0.09;nan;102904.56;4991411;28;20093;-42
2023/04/04 02:30:41;;;;;;;4.63;3.20;;;;;;;0.53;nan;102972.97;4992308;28;20050;-40
2023/04/04 02:33:07;;;;;;;5.32;3.67;;;;;;;0.47;nan;102967.53;4991071;28;20038;-40
2023/04/04 02:35:32;;;;;;;5.35;3.67;;;;;;;0.43;nan;102957.88;4980396;28;20049;-39
2023/04/04 02:37:58;;;;;;;4.70;3.78;;;;;;;0.07;nan;102901.91;4992346;28;20115;-40
2023/04/04 02:40:23;;;;;;;7.05;3.92;;;;;;;0.04;nan;102899.16;4975228;28;20034;-41
2023/04/04 02:42:49;;;;;;;5.65;3.88;;;;;;;0.05;nan;102903.53;4992483;28;20039;-41
2023/04/04 02:45:14;;;;;;;5.38;3.50;;;;;;;0.03;nan;102907.75;4991802;28;20038;-40
2023/04/04 02:47:41;;;;;;;5.28;3.88;;;;;;;0.33;nan;102959.97;4992743;28;20179;-40
2023/04/04 02:50:08;;;;;;;5.22;3.75;;;;;;;0.27;nan;102958.00;4996464;28;20033;-41
2023/04/04 02:52:33;;;;;;;5.38;3.90;;;;;;;-0.16;nan;102881.91;5000628;28;20045;-40
2023/04/04 02:54:58;;;;;;;8.45;4.07;;;;;;;0.18;nan;102943.78;5015854;28;20473;-41
2023/04/04 02:57:24;;;;;;;5.03;3.38;;;;;;;0.16;nan;102946.31;5014247;28;20495;-41
2023/04/04 02:59:49;;;;;;;6.78;3.97;;;;;;;0.14;nan;102952.25;5015352;28;20408;-40
2023/04/04 03:02:14;;;;;;;6.07;4.15;;;;;;;0.06;nan;102938.94;5015597;28;20444;-40
2023/04/04 03:04:40;;;;;;;6.53;3.65;;;;;;;-0.44;nan;102860.81;5015575;28;20046;-41
2023/04/04 03:07:05;;;;;;;4.90;3.70;;;;;;;-0.03;nan;102947.22;5015443;28;20034;-40
2023/04/04 03:09:30;;;;;;;6.65;3.97;;;;;;;-0.13;nan;102929.53;5013918;28;20118;-40
2023/04/04 03:11:56;;;;;;;5.22;3.90;;;;;;;-0.12;nan;102940.75;5015615;28;20034;-40
2023/04/04 03:14:21;;;;;;;4.78;4.05;;;;;;;-0.17;nan;102940.53;5015248;28;20041;-40
2023/04/04 03:16:48;;;;;;;9.02;5.50;;;;;;;-0.21;nan;102946.41;5015078;28;20053;-41
2023/04/04 03:19:14;;;;;;;6.00;4.13;;;;;;;-0.23;nan;102957.50;5014855;28;20086;-40
2023/04/04 03:21:40;;;;;;;4.82;4.20;;;;;;;-0.26;nan;102949.59;5013811;28;20439;-39
2023/04/04 03:24:05;;;;;;;8.25;4.28;;;;;;;-0.34;nan;102949.25;5014617;28;20160;-39
2023/04/04 03:26:31;;;;;;;6.53;4.50;;;;;;;-0.33;nan;102952.72;5011007;28;20034;-40
2023/04/04 03:28:56;;;;;;;7.72;4.38;;;;;;;-0.39;nan;102944.69;4995636;28;20030;-39
2023/04/04 03:31:21;;;;;;;5.80;4.40;;;;;;;-0.56;nan;102912.88;4995056;28;20129;-40
2023/04/04 03:33:47;;;;;;;7.30;5.00;;;;;;;-0.58;nan;102910.22;4995454;28;20038;-40
2023/04/04 03:36:13;;;;;;;6.63;4.60;;;;;;;-0.37;nan;102954.28;4995209;28;20168;-40
2023/04/04 03:38:38;;;;;;;5.82;4.13;;;;;;;-0.36;nan;102952.59;4993996;28;20027;-40
2023/04/04 03:41:04;;;;;;;8.90;4.68;;;;;;;-0.69;nan;102902.78;4994944;28;20125;-40
2023/04/04 03:43:31;;;;;;;6.63;4.93;;;;;;;-0.43;nan;102956.59;4994319;28;20040;-40
2023/04/04 03:46:00;;;;;;;6.00;4.97;;;;;;;-0.78;nan;102905.81;4993920;28;20042;-40
2023/04/04 03:48:26;;;;;;;7.75;4.55;;;;;;;-0.47;nan;102957.28;4994620;28;20542;-40
2023/04/04 03:50:51;;;;;;;8.75;5.20;;;;;;;-0.50;nan;102969.19;4995183;28;20073;-40
2023/04/04 03:53:17;;;;;;;6.57;4.57;;;;;;;-0.89;nan;102900.97;4995423;28;20422;-40
2023/04/04 03:55:42;;;;;;;10.32;4.65;;;;;;;-0.93;nan;102904.22;4993127;28;20069;-40
2023/04/04 03:58:07;;;;;;;7.38;4.15;;;;;;;-0.66;nan;102952.94;4994953;28;20030;-41
2023/04/04 04:00:32;;;;;;;6.53;4.78;;;;;;;-0.92;nan;102919.81;4994138;28;20129;-40
2023/04/04 04:02:58;;;;;;;6.80;4.47;;;;;;;-1.05;nan;102901.94;4993508;28;20041;-40
2023/04/04 04:05:23;;;;;;;7.60;5.40;;;;;;;-1.09;nan;102894.88;4995215;28;20035;-40
2023/04/04 04:07:49;;;;;;;9.73;5.05;;;;;;;-0.82;nan;102950.47;4993887;28;20117;-40
2023/04/04 04:10:14;;;;;;;8.05;5.07;;;;;;;-0.82;nan;102950.47;4993356;28;20389;-40
2023/04/04 04:12:40;;;;;;;8.60;5.38;;;;;;;-0.88;nan;102928.59;4994219;28;20356;-41
2023/04/04 04:15:06;;;;;;;13.38;5.72;;;;;;;-0.91;nan;102941.38;4994513;28;20253;-40
2023/04/04 04:17:31;;;;;;;9.77;5.88;;;;;;;-0.91;nan;102950.03;4994211;28;20061;-40
2023/04/04 04:19:56;;;;;;;7.93;4.85;;;;;;;-1.17;nan;102909.13;4994566;28;20577;-40
2023/04/04 04:22:22;;;;;;;9.18;5.97;;;;;;;-1.29;nan;102893.94;4994702;28;20061;-40
2023/04/04 04:24:47;;;;;;;9.02;5.07;;;;;;;-1.01;nan;102949.50;4994362;28;20533;-40
2023/04/04 04:27:12;;;;;;;7.70;5.28;;;;;;;-1.03;nan;102961.47;4994035;28;20038;-41
2023/04/04 04:29:38;;;;;;;10.50;6.03;;;;;;;-1.03;nan;102944.28;4993968;28;20081;-40
2023/04/04 04:32:03;;;;;;;8.05;5.22;;;;;;;-1.06;nan;102954.47;4994530;28;20042;-41
2023/04/04 04:34:28;;;;;;;7.63;5.72;;;;;;;-1.46;nan;102873.25;4993845;28;20030;-40
2023/04/04 04:36:54;;;;;;;8.60;5.43;;;;;;;-1.11;nan;102942.13;4994284;28;20042;-41
2023/04/04 04:39:19;;;;;;;6.28;5.53;;;;;;;-1.12;nan;102951.59;4994190;28;20044;-40
2023/04/04 04:41:44;;;;;;;7.10;5.70;;;;;;;-1.31;nan;102911.03;4994039;28;20050;-40
2023/04/04 04:44:10;;;;;;;13.02;6.40;;;;;;;-1.14;nan;102958.38;4993786;28;20117;-40
2023/04/04 04:46:35;;;;;;;10.68;5.72;;;;;;;-1.37;nan;102922.78;4993869;28;20034;-40
2023/04/04 04:49:00;;;;;;;7.80;5.55;;;;;;;-1.35;nan;102929.81;4994045;28;20050;-40
2023/04/04 04:51:26;;;;;;;12.57;6.20;;;;;;;-1.35;nan;102940.13;4993780;28;20068;-41
2023/04/04 04:53:51;;;;;;;7.88;5.57;;;;;;;-1.25;nan;102955.25;4993149;28;20034;-41
2023/04/04 04:56:16;;;;;;;11.27;6.43;;;;;;;-1.34;nan;102951.31;4992530;28;20061;-42
2023/04/04 04:58:43;;;;;;;8.75;6.70;;;;;;;-1.32;nan;102939.41;4993809;28;20034;-41
2023/04/04 05:01:09;;;;;;;7.47;5.80;;;;;;;-1.27;nan;102949.16;4992426;28;20084;-41
2023/04/04 05:03:34;;;;;;;13.60;6.00;;;;;;;-1.74;nan;102874.47;4993318;28;20432;-41
2023/04/04 05:06:00;;;;;;;9.80;6.32;;;;;;;-1.43;nan;102931.09;4993795;28;20042;-41
2023/04/04 05:08:26;;;;;;;9.15;7.05;;;;;;;-1.29;nan;102955.94;4992670;28;20374;-42
2023/04/04 05:10:53;;;;;;;7.80;5.80;;;;;;;-1.32;nan;102955.78;5010192;28;20045;-42
2023/04/04 05:13:19;;;;;;;7.93;6.32;;;;;;;-1.26;nan;102956.09;5013289;28;20033;-42
2023/04/04 05:15:45;;;;;;;10.20;6.90;;;;;;;-1.39;nan;102930.44;5013391;28;20393;-41
2023/04/04 05:18:11;;;;;;;10.88;7.05;;;;;;;-1.60;nan;102895.81;5012815;28;20046;-42
2023/04/04 05:20:36;;;;;;;10.98;7.20;;;;;;;-1.22;nan;102970.03;5011983;28;20096;-41
2023/04/04 05:23:01;;;;;;;9.77;7.10;;;;;;;-1.23;nan;102966.56;5012765;28;20065;-41
2023/04/04 05:25:27;;;;;;;8.57;7.13;;;;;;;-1.18;nan;102966.78;5011883;28;20045;-41
2023/04/04 05:27:54;;;;;;;9.13;7.47;;;;;;;-1.27;nan;102954.31;5011607;28;20038;-41
2023/04/04 05:30:20;;;;;;;14.48;8.30;;;;;;;-1.13;nan;102978.22;5012719;28;20030;-41
2023/04/04 05:32:45;;;;;;;9.32;7.05;;;;;;;-1.51;nan;102903.13;5013138;28;20084;-42
2023/04/04 05:35:11;;;;;;;8.43;6.72;;;;;;;-1.10;nan;102964.56;5011164;28;20060;-42
2023/04/04 05:37:39;;;;;;;9.75;7.85;;;;;;;-1.52;nan;102888.47;5012609;28;20062;-42
2023/04/04 05:40:06;;;;;;;11.10;7.50;;;;;;;-1.13;nan;102963.63;5012082;28;20118;-42
2023/04/04 05:42:31;;;;;;;9.48;7.75;;;;;;;-1.01;nan;102990.84;5011500;28;20111;-41
2023/04/04 05:44:56;;;;;;;14.82;7.85;;;;;;;-1.00;nan;102969.38;5011685;28;20042;-41
2023/04/04 05:47:22;;;;;;;11.82;7.72;;;;;;;-0.97;nan;102964.38;5012408;28;20034;-42
2023/04/04 05:49:47;;;;;;;10.45;7.43;;;;;;;-0.94;nan;102962.81;5012071;28;20038;-41
2023/04/04 05:52:12;;;;;;;16.15;9.63;;;;;;;-0.81;nan;102972.91;5011017;28;20033;-41
2023/04/04 05:54:38;;;;;;;10.75;7.78;;;;;;;-0.88;nan;102945.00;5011105;28;20038;-41
2023/04/04 05:57:03;;;;;;;11.50;8.27;;;;;;;-0.83;nan;102937.47;5012288;28;20042;-41
2023/04/04 05:59:29;;;;;;;9.73;8.15;;;;;;;-0.61;nan;102966.09;5011490;28;20033;-44
2023/04/04 06:01:54;;;;;;;10.13;7.32;;;;;;;-0.50;nan;102970.09;5012201;28;20038;-41
2023/04/04 06:04:20;;;;;;;11.95;7.35;;;;;;;-0.42;nan;102958.38;5012362;28;20222;-41
2023/04/04 06:06:45;;;;;;;10.30;6.95;;;;;;;-0.35;nan;102957.81;5012133;28;20452;-41
2023/04/04 06:09:10;;;;;;;10.25;7.10;;;;;;;-0.54;nan;102910.34;5012387;28;20510;-40
2023/04/04 06:11:36;;;;;;;13.63;7.80;;;;;;;-0.54;nan;102897.41;5012214;28;20026;-40
2023/04/04 06:14:01;;;;;;;10.70;7.72;;;;;;;-0.07;nan;102972.91;5027908;28;20046;-39
2023/04/04 06:16:27;;;;;;;9.93;7.38;;;;;;;0.05;nan;102964.78;5011649;28;20056;-39
2023/04/04 06:18:52;;;;;;;14.82;7.90;;;;;;;0.15;nan;102965.25;5012207;28;20050;-39
2023/04/04 06:21:17;;;;;;;19.65;6.63;;;;;;;0.23;nan;102966.50;5012473;28;20496;-39
2023/04/04 06:23:42;;;;;;;9.70;7.35;;;;;;;0.36;nan;102971.38;5014159;28;20496;-40
2023/04/04 06:26:08;;;;;;;9.20;6.60;;;;;;;0.19;nan;102924.84;5016091;28;20473;-39
2023/04/04 06:28:33;;;;;;;9.80;7.13;;;;;;;0.24;nan;102915.56;5016038;28;20029;-40
2023/04/04 06:30:59;;;;;;;9.43;6.78;;;;;;;0.62;nan;102971.56;5016299;28;20040;-40
2023/04/04 06:33:24;;;;;;;8.13;6.72;;;;;;;0.39;nan;102908.44;5008552;28;20038;-40
2023/04/04 06:35:49;;;;;;;9.32;6.35;;;;;;;0.86;nan;102962.22;4996413;28;20100;-41
2023/04/04 06:38:15;;;;;;;9.60;6.00;;;;;;;1.19;nan;102978.25;4996461;28;20034;-40
2023/04/04 06:40:41;;;;;;;7.28;5.97;;;;;;;1.52;nan;102975.25;4996083;28;20078;-40
2023/04/04 06:43:06;;;;;;;9.30;5.85;;;;;;;1.90;nan;102970.66;4996347;28;20410;-40
2023/04/04 06:45:34;;;;;;;7.57;4.88;;;;;;;2.27;nan;102968.53;4996037;28;20038;-41
2023/04/04 06:48:00;;;;;;;8.10;4.75;;;;;;;2.76;nan;102965.88;4995226;28;20188;-40
2023/04/04 06:50:26;;;;;;;6.20;4.50;;;;;;;3.15;nan;102972.34;4995867;28;20042;-40
2023/04/04 06:52:51;;;;;;;7.20;4.95;;;;;;;3.32;nan;102988.53;4996418;28;20242;-41
2023/04/04 06:55:17;;;;;;;5.75;4.50;;;;;;;3.59;nan;102991.94;4996386;28;20128;-41
2023/04/04 06:57:42;;;;;;;6.45;4.80;;;;;;;3.65;nan;103002.56;4994607;28;20045;-41
2023/04/04 07:00:09;;;;;;;7.88;4.53;;;;;;;3.80;nan;102992.59;4994764;28;20034;-41
2023/04/04 07:02:34;;;;;;;5.28;4.78;;;;;;;3.87;nan;102999.78;4996118;28;20038;-41
2023/04/04 07:05:00;;;;;;;5.57;4.10;;;;;;;3.85;nan;102998.81;4995509;28;20541;-41
2023/04/04 07:07:25;;;;;;;8.35;4.85;;;;;;;3.59;nan;102941.63;4995523;28;20057;-41
2023/04/04 07:09:51;;;;;;;7.85;4.28;;;;;;;3.73;nan;102945.50;5010770;28;20074;-41
2023/04/04 07:12:16;;;;;;;9.27;4.68;;;;;;;4.10;nan;103003.03;4996049;28;20129;-40
2023/04/04 07:14:44;;;;;;;12.02;4.40;;;;;;;4.35;nan;103013.28;4996321;28;20038;-41
2023/04/04 07:17:09;;;;;;;8.18;4.22;;;;;;;4.24;nan;102969.53;4995656;28;20417;-41
2023/04/04 07:19:35;;;;;;;6.13;4.78;;;;;;;4.65;nan;103015.84;4993673;28;20046;-41
2023/04/04 07:22:00;;;;;;;7.85;4.63;;;;;;;4.73;nan;103026.50;5007642;28;20045;-41
2023/04/04 07:24:26;;;;;;;7.18;4.40;;;;;;;4.88;nan;103025.16;5013788;28;20045;-41
2023/04/04 07:26:51;;;;;;;7.75;4.75;;;;;;;5.18;nan;103027.66;5012402;28;20049;-40
2023/04/04 07:29:16;;;;;;;5.53;4.47;;;;;;;5.58;nan;103017.28;5013854;28;20030;-41
2023/04/04 07:31:42;;;;;;;4.53;3.75;;;;;;;6.07;nan;103013.16;5013321;28;20030;-40
2023/04/04 07:34:07;;;;;;;6.85;4.75;;;;;;;6.12;nan;102980.13;5012003;28;20565;-42
2023/04/04 07:36:33;;;;;;;6.80;4.25;;;;;;;6.23;nan;102978.63;5009910;28;20511;-42
2023/04/04 07:38:58;;;;;;;6.88;4.43;;;;;;;6.88;nan;103019.06;4993557;28;20093;-41
2023/04/04 07:41:24;;;;;;;9.60;4.03;;;;;;;7.20;nan;103027.47;4993798;28;20081;-41
2023/04/04 07:43:50;;;;;;;5.47;3.75;;;;;;;7.23;nan;102969.88;4991932;28;20070;-41
2023/04/04 07:46:15;;;;;;;5.63;3.58;;;;;;;7.48;nan;102969.38;5015115;28;20061;-41
2023/04/04 07:48:41;;;;;;;4.65;3.60;;;;;;;8.00;nan;103027.78;5012313;28;20060;-41
2023/04/04 07:51:06;;;;;;;5.82;4.00;;;;;;;8.33;nan;103029.09;5001974;28;20490;-43
2023/04/04 07:53:31;;;;;;;9.73;3.97;;;;;;;8.86;nan;103028.75;4994937;28;20077;-40
2023/04/04 07:55:57;;;;;;;6.28;4.20;;;;;;;9.05;nan;103030.69;4983244;28;20042;-42
2023/04/04 07:58:23;;;;;;;5.80;3.85;;;;;;;9.28;nan;103039.63;5010973;28;20050;-41
2023/04/04 08:00:48;;;;;;;4.50;3.58;;;;;;;9.29;nan;102972.19;5011240;28;20088;-43
2023/04/04 08:03:13;;;;;;;5.28;3.78;;;;;;;9.85;nan;103007.59;5012872;28;20049;-42
2023/04/04 08:05:40;;;;;;;6.43;4.03;;;;;;;10.34;nan;103010.44;5005027;28;20045;-41
2023/04/04 08:08:06;;;;;;;4.97;3.80;;;;;;;10.44;nan;103005.22;5010558;28;20087;-40
2023/04/04 08:10:31;;;;;;;5.15;3.33;;;;;;;10.68;nan;103012.28;5011691;28;20116;-41
2023/04/04 08:12:57;;;;;;;5.22;3.70;;;;;;;11.10;nan;103011.44;5009567;28;20137;-41
2023/04/04 08:15:22;;;;;;;5.68;3.88;;;;;;;11.29;nan;103011.41;5009571;28;20045;-40
2023/04/04 08:17:47;;;;;;;5.13;3.53;;;;;;;11.25;nan;103022.84;5012248;28;20065;-43
2023/04/04 08:20:13;;;;;;;4.18;3.15;;;;;;;11.05;nan;102963.13;5010685;28;20042;-43
2023/04/04 08:22:39;;;;;;;4.72;3.35;;;;;;;10.86;nan;102951.69;5012238;28;20034;-43
2023/04/04 08:25:05;;;;;;;5.38;2.95;;;;;;;10.99;nan;102971.03;5006262;28;20044;-42
2023/04/04 08:27:31;;;;;;;5.38;2.83;;;;;;;11.36;nan;103022.84;5011748;28;20038;-43
2023/04/04 08:29:56;;;;;;;6.53;3.03;;;;;;;11.25;nan;103033.41;4997351;28;20405;-43
2023/04/04 08:32:22;;;;;;;5.65;3.10;;;;;;;11.46;nan;103006.13;4991881;28;20038;-42
2023/04/04 08:34:48;;;;;;;3.70;2.92;;;;;;;11.22;nan;103007.03;5007244;28;20030;-43
2023/04/04 08:37:13;;;;;;;4.85;2.92;;;;;;;11.18;nan;102992.09;5025716;28;20041;-42
2023/04/04 08:39:39;;;;;;;4.07;3.28;;;;;;;11.16;nan;102993.84;5021679;28;20747;-42
2023/04/04 08:42:06;;;;;;;4.40;2.88;;;;;;;11.29;nan;103019.31;5024141;28;20373;-42
2023/04/04 08:44:33;;;;;;;6.25;2.63;;;;;;;11.38;nan;102989.44;5031863;28;20473;-43
2023/04/04 08:47:00;;;;;;;4.18;2.30;;;;;;;11.09;nan;102942.00;5030739;28;20400;-42
2023/04/04 08:49:26;;;;;;;3.35;2.38;;;;;;;11.91;nan;102991.09;5024259;28;20030;-41
2023/04/04 08:51:53;;;;;;;4.72;2.45;;;;;;;11.78;nan;102953.31;5029283;28;20106;-42
2023/04/04 08:54:19;;;;;;;6.82;3.10;;;;;;;12.26;nan;102941.63;5029747;28;20029;-43
2023/04/04 08:56:45;;;;;;;3.80;1.92;;;;;;;12.69;nan;103003.00;5014989;28;20457;-42
2023/04/04 08:59:14;;;;;;;3.22;1.77;;;;;;;12.81;nan;102989.69;4991343;28;20062;-41
2023/04/04 09:01:39;;;;;;;1.80;1.70;;;;;;;11.98;nan;102946.19;4991619;28;20067;-42
2023/04/04 09:04:05;;;;;;;3.17;2.10;;;;;;;12.61;nan;103004.81;4991988;28;20446;-42
2023/04/04 09:06:32;;;;;;;4.03;1.98;;;;;;;12.42;nan;102967.06;4992348;28;20058;-42
2023/04/04 09:08:58;;;;;;;3.35;1.85;;;;;;;12.50;nan;102937.94;4991142;28;20042;-44
2023/04/04 09:11:25;;;;;;;4.15;2.03;;;;;;;12.09;nan;102932.94;4991935;28;20081;-48
2023/04/04 09:13:51;;;;;;;3.35;2.10;;;;;;;12.69;nan;103008.28;4994484;28;20040;-42
2023/04/04 09:16:16;;;;;;;3.58;1.70;;;;;;;12.82;nan;103000.25;5011271;28;20042;-41
2023/04/04 09:18:42;;;;;;;3.35;2.20;;;;;;;12.83;nan;102987.91;5010352;28;20397;-42
2023/04/04 09:21:11;;;;;;;4.60;2.10;;;;;;;13.36;nan;103011.28;5011134;28;20052;-43
2023/04/04 09:23:37;;;;;;;3.25;1.85;;;;;;;13.76;nan;102972.91;5009813;28;20040;-45
2023/04/04 09:26:03;;;;;;;3.38;1.90;;;;;;;14.11;nan;102988.38;4993590;28;20109;-42
2023/04/04 09:28:28;;;;;;;4.80;2.35;;;;;;;14.21;nan;102986.47;4991155;28;20478;-44
2023/04/04 09:30:53;;;;;;;3.95;2.20;;;;;;;14.12;nan;102936.28;4989623;28;20114;-41
2023/04/04 09:33:20;;;;;;;3.08;2.10;;;;;;;15.21;nan;102997.28;4991165;28;20108;-41
2023/04/04 09:35:54;;;;;;;5.30;2.10;;;;;;;15.62;nan;102991.25;4990222;28;20121;-42
2023/04/04 09:38:23;;;;;;;4.82;2.42;;;;;;;15.34;nan;102995.31;4991248;28;20035;-43
2023/04/04 09:40:48;;;;;;;5.47;2.33;;;;;;;14.88;nan;102994.34;4995604;28;20038;-42
2023/04/04 09:43:14;;;;;;;37.40;30.17;;;;;;;14.95;nan;102996.88;4989829;28;20083;-44
2023/04/04 09:45:43;;;;;;;3.90;2.45;;;;;;;15.27;nan;102985.69;4991304;28;20041;-44
2023/04/04 09:48:09;;;;;;;2.97;1.98;;;;;;;15.69;nan;103002.66;4991411;28;20080;-44
2023/04/04 09:50:36;;;;;;;4.38;2.30;;;;;;;15.68;nan;102992.91;4991742;28;20113;-42
2023/04/04 09:53:01;;;;;;;8.70;7.18;;;;;;;15.96;nan;102994.13;4988813;28;20561;-42
2023/04/04 09:55:36;;;;;;;4.95;2.47;;;;;;;16.54;nan;102999.09;4991099;28;20085;-43
2023/04/04 09:58:11;;;;;;;3.90;2.60;;;;;;;15.86;nan;102987.25;4989101;28;20038;-44
2023/04/04 10:00:40;;;;;;;8.52;2.08;;;;;;;15.76;nan;102983.91;5010538;28;20443;-45
2023/04/04 10:03:06;;;;;;;4.18;2.25;;;;;;;15.60;nan;102961.22;5006914;28;20057;-44
2023/04/04 10:05:32;;;;;;;6.45;3.38;;;;;;;16.24;nan;102986.44;5007876;28;20466;-43
2023/04/04 10:07:58;;;;;;;2.75;2.35;;;;;;;16.62;nan;103001.56;5009392;28;20041;-43
2023/04/04 10:10:25;;;;;;;3.15;2.40;;;;;;;16.40;nan;102937.38;5010931;28;20037;-43
2023/04/04 10:12:51;;;;;;;4.57;2.33;;;;;;;16.50;nan;102938.00;5009578;28;20088;-45
2023/04/04 10:15:17;;;;;;;2.63;2.40;;;;;;;16.26;nan;102980.19;5010489;28;20384;-44
2023/04/04 10:17:43;;;;;;;3.22;2.47;;;;;;;16.12;nan;102994.66;5009178;28;20247;-43
2023/04/04 10:20:09;;;;;;;4.07;2.13;;;;;;;16.10;nan;102985.88;5009306;28;20026;-46
2023/04/04 10:22:36;;;;;;;5.05;2.22;;;;;;;16.37;nan;102972.00;5003760;28;20137;-44
2023/04/04 10:25:02;;;;;;;5.45;2.30;;;;;;;16.40;nan;102941.81;4992729;28;20128;-43
2023/04/04 10:27:27;;;;;;;3.75;2.53;;;;;;;16.36;nan;102924.16;5010787;28;20026;-44
2023/04/04 10:29:53;;;;;;;3.53;2.28;;;;;;;16.56;nan;102983.09;5010256;28;20045;-45
2023/04/04 10:32:24;;;;;;;3.75;2.50;;;;;;;16.98;nan;102967.88;5008456;28;20046;-44
2023/04/04 10:35:04;;;;;;;4.47;3.00;;;;;;;17.47;nan;102975.44;5010600;28;20049;-45
2023/04/04 10:37:37;;;;;;;6.00;2.90;;;;;;;16.68;nan;102937.59;5007915;28;20034;-44
2023/04/04 10:40:09;;;;;;;4.47;2.78;;;;;;;17.59;nan;102980.47;4995045;28;20306;-45
2023/04/04 10:42:39;;;;;;;3.67;2.53;;;;;;;18.05;nan;102961.38;4989008;28;20567;-47
2023/04/04 10:45:07;;;;;;;5.65;2.40;;;;;;;17.59;nan;102960.03;4989323;28;20157;-46
2023/04/04 10:47:33;;;;;;;4.32;2.25;;;;;;;17.60;nan;102960.91;4988594;28;20033;-49
2023/04/04 10:49:58;;;;;;;4.25;2.45;;;;;;;17.64;nan;102965.22;4989161;28;20030;-43
2023/04/04 10:52:26;;;;;;;4.05;2.47;;;;;;;17.68;nan;102948.25;5006043;28;20058;-46
2023/04/04 10:54:54;;;;;;;5.07;2.70;;;;;;;17.05;nan;102887.84;4989171;28;20039;-43
2023/04/04 10:57:20;;;;;;;4.82;2.47;;;;;;;17.28;nan;102874.78;5000461;28;20053;-45
2023/04/04 11:00:17;;;;;;;3.40;2.30;;;;;;;17.34;nan;102933.19;4988575;28;20035;-45
2023/04/04 11:02:51;;;;;;;4.43;2.58;;;;;;;16.77;nan;102945.34;4976344;28;20401;-43
2023/04/04 11:05:33;;;;;;;2.60;2.35;;;;;;;16.41;nan;102948.84;4989572;28;20470;-45
2023/04/04 11:08:04;;;;;;;3.85;2.63;;;;;;;16.62;nan;102869.50;4988278;28;20097;-46
2023/04/04 11:10:34;;;;;;;2.42;1.80;;;;;;;17.53;nan;102874.09;4993359;28;20130;-45
2023/04/04 11:13:10;;;;;;;4.40;2.70;;;;;;;18.37;nan;102929.25;4992647;28;20034;-44
2023/04/04 11:15:59;;;;;;;4.13;2.50;;;;;;;18.91;nan;102939.97;5008558;28;20417;-45
2023/04/04 11:18:30;;;;;;;3.17;2.15;;;;;;;19.25;nan;102920.97;5008671;28;20470;-43
2023/04/04 11:20:56;;;;;;;2.38;2.17;;;;;;;19.21;nan;102928.19;4992718;28;20065;-45
2023/04/04 11:23:22;;;;;;;4.53;2.50;;;;;;;19.15;nan;102915.06;4993749;28;20458;-44
2023/04/04 11:25:54;;;;;;;4.35;2.60;;;;;;;18.15;nan;102917.53;4975967;28;20121;-44
2023/04/04 11:28:35;;;;;;;7.07;3.53;;;;;;;17.42;nan;102920.53;4992394;28;20262;-44
2023/04/04 11:31:16;;;;;;;4.65;2.78;;;;;;;18.29;nan;102920.63;4993153;28;20642;-45
2023/04/04 11:33:58;;;;;;;;;;;;;;;19.28;nan;102919.06;4993852;28;20057;-44
2023/04/04 11:36:36;;;;;;;3.97;2.38;;;;;;;19.04;nan;102915.44;5010047;28;19947;-44
2023/04/04 11:39:19;;;;;;;4.22;2.40;;;;;;;18.98;nan;102915.66;5012535;28;20026;-44
2023/04/04 11:42:04;;;;;;;2.92;2.50;;;;;;;19.16;nan;102907.94;5013347;28;20050;-44